sensor_id;sensor_type;location;lat;lon;timestamp;P1;durP1;ratioP1;P2;durP2;ratioP2
18838;SDS011;9548;56.920;14.804;2022-11-22T00:00:07;1.60;;;1.20;;
18838;SDS011;9548;56.920;14.804;2022-11-22T00:02:37;2.97;;;1.53;;
18838;SDS011;9548;56.920;14.804;2022-11-22T00:05:04;3.00;;;1.67;;
18838;SDS011;9548;56.920;14.804;2022-11-22T00:07:31;1.47;;;1.23;;
18838;SDS011;9548;56.920;14.804;2022-11-22T00:09:58;1.77;;;1.47;;
18838;SDS011;9548;56.920;14.804;2022-11-22T00:12:25;2.10;;;1.40;;
18838;SDS011;9548;56.920;14.804;2022-11-22T00:14:52;2.87;;;1.70;;
18838;SDS011;9548;56.920;14.804;2022-11-22T00:17:19;2.57;;;1.60;;
18838;SDS011;9548;56.920;14.804;2022-11-22T00:19:47;2.50;;;1.63;;
18838;SDS011;9548;56.920;14.804;2022-11-22T00:22:14;3.53;;;1.90;;
18838;SDS011;9548;56.920;14.804;2022-11-22T00:24:41;3.37;;;1.90;;
18838;SDS011;9548;56.920;14.804;2022-11-22T00:27:10;4.47;;;2.00;;
18838;SDS011;9548;56.920;14.804;2022-11-22T00:29:37;3.13;;;1.83;;
18838;SDS011;9548;56.920;14.804;2022-11-22T00:32:04;3.10;;;1.90;;
18838;SDS011;9548;56.920;14.804;2022-11-22T00:34:31;3.97;;;2.37;;
18838;SDS011;9548;56.920;14.804;2022-11-22T00:36:59;4.77;;;2.40;;
18838;SDS011;9548;56.920;14.804;2022-11-22T00:39:26;4.63;;;2.40;;
18838;SDS011;9548;56.920;14.804;2022-11-22T00:41:53;3.63;;;1.90;;
18838;SDS011;9548;56.920;14.804;2022-11-22T00:44:20;2.73;;;1.93;;
18838;SDS011;9548;56.920;14.804;2022-11-22T00:46:47;5.37;;;2.27;;
18838;SDS011;9548;56.920;14.804;2022-11-22T00:49:14;2.73;;;1.77;;
18838;SDS011;9548;56.920;14.804;2022-11-22T00:51:41;3.43;;;1.90;;
18838;SDS011;9548;56.920;14.804;2022-11-22T00:54:09;4.13;;;2.00;;
18838;SDS011;9548;56.920;14.804;2022-11-22T00:56:36;3.57;;;1.87;;
18838;SDS011;9548;56.920;14.804;2022-11-22T00:59:04;3.13;;;2.00;;
18838;SDS011;9548;56.920;14.804;2022-11-22T01:01:30;2.97;;;1.90;;
18838;SDS011;9548;56.920;14.804;2022-11-22T01:03:57;2.77;;;1.87;;
18838;SDS011;9548;56.920;14.804;2022-11-22T01:06:24;2.70;;;2.00;;
18838;SDS011;9548;56.920;14.804;2022-11-22T01:08:51;3.17;;;1.87;;
18838;SDS011;9548;56.920;14.804;2022-11-22T01:11:20;4.13;;;2.30;;
18838;SDS011;9548;56.920;14.804;2022-11-22T01:13:47;4.43;;;2.43;;
18838;SDS011;9548;56.920;14.804;2022-11-22T01:16:14;3.37;;;2.30;;
18838;SDS011;9548;56.920;14.804;2022-11-22T01:18:41;2.70;;;1.90;;
18838;SDS011;9548;56.920;14.804;2022-11-22T01:21:09;5.13;;;2.30;;
18838;SDS011;9548;56.920;14.804;2022-11-22T01:23:36;4.03;;;2.50;;
18838;SDS011;9548;56.920;14.804;2022-11-22T01:26:06;3.87;;;2.20;;
18838;SDS011;9548;56.920;14.804;2022-11-22T01:28:35;3.57;;;2.30;;
18838;SDS011;9548;56.920;14.804;2022-11-22T01:31:03;4.23;;;2.60;;
18838;SDS011;9548;56.920;14.804;2022-11-22T01:33:30;3.87;;;2.57;;
18838;SDS011;9548;56.920;14.804;2022-11-22T01:35:56;3.47;;;2.20;;
18838;SDS011;9548;56.920;14.804;2022-11-22T01:38:24;5.63;;;2.77;;
18838;SDS011;9548;56.920;14.804;2022-11-22T01:40:51;4.87;;;2.50;;
18838;SDS011;9548;56.920;14.804;2022-11-22T01:43:18;5.37;;;2.50;;
18838;SDS011;9548;56.920;14.804;2022-11-22T01:45:51;4.27;;;2.30;;
18838;SDS011;9548;56.920;14.804;2022-11-22T01:48:21;3.63;;;2.20;;
18838;SDS011;9548;56.920;14.804;2022-11-22T01:50:54;3.67;;;2.33;;
18838;SDS011;9548;56.920;14.804;2022-11-22T01:53:26;4.37;;;2.30;;
18838;SDS011;9548;56.920;14.804;2022-11-22T01:55:55;4.03;;;2.40;;
18838;SDS011;9548;56.920;14.804;2022-11-22T01:58:24;3.20;;;1.90;;
18838;SDS011;9548;56.920;14.804;2022-11-22T02:00:55;4.03;;;2.40;;
18838;SDS011;9548;56.920;14.804;2022-11-22T02:03:23;3.07;;;2.17;;
18838;SDS011;9548;56.920;14.804;2022-11-22T02:05:51;4.73;;;2.40;;
18838;SDS011;9548;56.920;14.804;2022-11-22T02:08:21;4.03;;;2.17;;
18838;SDS011;9548;56.920;14.804;2022-11-22T02:10:54;3.83;;;2.13;;
18838;SDS011;9548;56.920;14.804;2022-11-22T02:13:23;4.10;;;2.10;;
18838;SDS011;9548;56.920;14.804;2022-11-22T02:15:50;4.07;;;2.57;;
18838;SDS011;9548;56.920;14.804;2022-11-22T02:18:19;3.47;;;2.03;;
18838;SDS011;9548;56.920;14.804;2022-11-22T02:20:46;3.77;;;2.00;;
18838;SDS011;9548;56.920;14.804;2022-11-22T02:23:16;3.43;;;2.17;;
18838;SDS011;9548;56.920;14.804;2022-11-22T02:25:54;4.80;;;2.50;;
18838;SDS011;9548;56.920;14.804;2022-11-22T02:28:21;5.27;;;1.90;;
18838;SDS011;9548;56.920;14.804;2022-11-22T02:30:48;3.77;;;1.90;;
18838;SDS011;9548;56.920;14.804;2022-11-22T02:33:15;2.70;;;1.70;;
18838;SDS011;9548;56.920;14.804;2022-11-22T02:35:42;3.57;;;2.10;;
18838;SDS011;9548;56.920;14.804;2022-11-22T02:38:10;4.23;;;2.03;;
18838;SDS011;9548;56.920;14.804;2022-11-22T02:40:41;4.43;;;2.10;;
18838;SDS011;9548;56.920;14.804;2022-11-22T02:43:14;3.43;;;2.10;;
18838;SDS011;9548;56.920;14.804;2022-11-22T02:45:43;3.13;;;2.00;;
18838;SDS011;9548;56.920;14.804;2022-11-22T02:48:11;4.33;;;1.90;;
18838;SDS011;9548;56.920;14.804;2022-11-22T02:50:40;4.20;;;1.70;;
18838;SDS011;9548;56.920;14.804;2022-11-22T02:53:08;3.87;;;1.87;;
18838;SDS011;9548;56.920;14.804;2022-11-22T02:55:36;2.80;;;1.60;;
18838;SDS011;9548;56.920;14.804;2022-11-22T02:58:04;3.07;;;1.80;;
18838;SDS011;9548;56.920;14.804;2022-11-22T03:00:32;3.07;;;1.70;;
18838;SDS011;9548;56.920;14.804;2022-11-22T03:03:00;2.80;;;1.93;;
18838;SDS011;9548;56.920;14.804;2022-11-22T03:05:27;3.70;;;1.87;;
18838;SDS011;9548;56.920;14.804;2022-11-22T03:07:54;2.93;;;1.87;;
18838;SDS011;9548;56.920;14.804;2022-11-22T03:10:21;2.70;;;1.77;;
18838;SDS011;9548;56.920;14.804;2022-11-22T03:12:48;2.43;;;1.60;;
18838;SDS011;9548;56.920;14.804;2022-11-22T03:15:15;3.77;;;1.73;;
18838;SDS011;9548;56.920;14.804;2022-11-22T03:17:43;3.33;;;1.90;;
18838;SDS011;9548;56.920;14.804;2022-11-22T03:20:10;2.47;;;1.57;;
18838;SDS011;9548;56.920;14.804;2022-11-22T03:22:37;2.17;;;1.47;;
18838;SDS011;9548;56.920;14.804;2022-11-22T03:25:04;2.40;;;1.40;;
18838;SDS011;9548;56.920;14.804;2022-11-22T03:27:32;3.87;;;1.60;;
18838;SDS011;9548;56.920;14.804;2022-11-22T03:29:59;2.63;;;1.83;;
18838;SDS011;9548;56.920;14.804;2022-11-22T03:32:26;4.30;;;1.60;;
18838;SDS011;9548;56.920;14.804;2022-11-22T03:34:54;2.90;;;1.43;;
18838;SDS011;9548;56.920;14.804;2022-11-22T03:37:21;6.57;;;2.23;;
18838;SDS011;9548;56.920;14.804;2022-11-22T03:39:48;2.93;;;1.53;;
18838;SDS011;9548;56.920;14.804;2022-11-22T03:42:15;7.33;;;1.63;;
18838;SDS011;9548;56.920;14.804;2022-11-22T03:44:42;10.43;;;1.37;;
18838;SDS011;9548;56.920;14.804;2022-11-22T03:47:09;4.47;;;1.53;;
18838;SDS011;9548;56.920;14.804;2022-11-22T03:49:36;8.30;;;1.80;;
18838;SDS011;9548;56.920;14.804;2022-11-22T03:52:04;10.87;;;2.10;;
18838;SDS011;9548;56.920;14.804;2022-11-22T03:54:31;14.07;;;1.27;;
18838;SDS011;9548;56.920;14.804;2022-11-22T03:56:58;14.60;;;1.23;;
18838;SDS011;9548;56.920;14.804;2022-11-22T03:59:25;30.57;;;1.57;;
18838;SDS011;9548;56.920;14.804;2022-11-22T04:01:52;18.23;;;1.70;;
18838;SDS011;9548;56.920;14.804;2022-11-22T04:04:19;23.10;;;1.50;;
18838;SDS011;9548;56.920;14.804;2022-11-22T04:06:46;20.63;;;1.40;;
18838;SDS011;9548;56.920;14.804;2022-11-22T04:09:14;18.50;;;1.37;;
18838;SDS011;9548;56.920;14.804;2022-11-22T04:11:41;17.17;;;1.90;;
18838;SDS011;9548;56.920;14.804;2022-11-22T04:14:09;30.90;;;1.80;;
18838;SDS011;9548;56.920;14.804;2022-11-22T04:16:53;20.37;;;2.17;;
18838;SDS011;9548;56.920;14.804;2022-11-22T04:19:20;32.00;;;2.00;;
18838;SDS011;9548;56.920;14.804;2022-11-22T04:21:47;39.47;;;2.10;;
18838;SDS011;9548;56.920;14.804;2022-11-22T04:24:15;16.17;;;1.33;;
18838;SDS011;9548;56.920;14.804;2022-11-22T04:26:59;23.97;;;1.67;;
18838;SDS011;9548;56.920;14.804;2022-11-22T04:29:26;21.07;;;1.47;;
18838;SDS011;9548;56.920;14.804;2022-11-22T04:31:53;26.20;;;1.97;;
18838;SDS011;9548;56.920;14.804;2022-11-22T04:34:38;35.80;;;2.10;;
18838;SDS011;9548;56.920;14.804;2022-11-22T04:37:04;32.47;;;2.17;;
18838;SDS011;9548;56.920;14.804;2022-11-22T04:39:33;22.47;;;2.30;;
18838;SDS011;9548;56.920;14.804;2022-11-22T04:42:00;18.53;;;1.70;;
18838;SDS011;9548;56.920;14.804;2022-11-22T04:44:44;22.37;;;1.80;;
18838;SDS011;9548;56.920;14.804;2022-11-22T04:47:12;26.17;;;2.00;;
18838;SDS011;9548;56.920;14.804;2022-11-22T04:50:03;24.30;;;2.10;;
18838;SDS011;9548;56.920;14.804;2022-11-22T04:52:54;12.90;;;1.70;;
18838;SDS011;9548;56.920;14.804;2022-11-22T04:55:21;25.07;;;2.17;;
18838;SDS011;9548;56.920;14.804;2022-11-22T04:57:48;23.67;;;2.00;;
18838;SDS011;9548;56.920;14.804;2022-11-22T05:00:16;11.80;;;1.87;;
18838;SDS011;9548;56.920;14.804;2022-11-22T05:02:43;16.33;;;1.97;;
18838;SDS011;9548;56.920;14.804;2022-11-22T05:05:10;25.13;;;2.53;;
18838;SDS011;9548;56.920;14.804;2022-11-22T05:07:37;20.47;;;2.60;;
18838;SDS011;9548;56.920;14.804;2022-11-22T05:10:04;9.83;;;2.20;;
18838;SDS011;9548;56.920;14.804;2022-11-22T05:12:33;10.70;;;1.77;;
18838;SDS011;9548;56.920;14.804;2022-11-22T05:15:00;6.77;;;2.03;;
18838;SDS011;9548;56.920;14.804;2022-11-22T05:17:27;5.27;;;2.20;;
18838;SDS011;9548;56.920;14.804;2022-11-22T05:19:54;3.53;;;2.13;;
18838;SDS011;9548;56.920;14.804;2022-11-22T05:22:21;9.10;;;2.10;;
18838;SDS011;9548;56.920;14.804;2022-11-22T05:25:08;2.90;;;1.60;;
18838;SDS011;9548;56.920;14.804;2022-11-22T05:27:35;4.13;;;2.13;;
18838;SDS011;9548;56.920;14.804;2022-11-22T05:30:03;3.53;;;1.80;;
18838;SDS011;9548;56.920;14.804;2022-11-22T05:32:31;3.40;;;1.83;;
18838;SDS011;9548;56.920;14.804;2022-11-22T05:34:59;4.00;;;2.20;;
18838;SDS011;9548;56.920;14.804;2022-11-22T05:37:26;3.93;;;2.20;;
18838;SDS011;9548;56.920;14.804;2022-11-22T05:39:54;3.80;;;2.07;;
18838;SDS011;9548;56.920;14.804;2022-11-22T05:42:21;4.07;;;2.00;;
18838;SDS011;9548;56.920;14.804;2022-11-22T05:44:49;4.10;;;2.00;;
18838;SDS011;9548;56.920;14.804;2022-11-22T05:47:16;3.63;;;1.93;;
18838;SDS011;9548;56.920;14.804;2022-11-22T05:49:43;5.67;;;2.20;;
18838;SDS011;9548;56.920;14.804;2022-11-22T05:52:10;3.37;;;2.03;;
18838;SDS011;9548;56.920;14.804;2022-11-22T05:54:37;4.03;;;2.03;;
18838;SDS011;9548;56.920;14.804;2022-11-22T05:57:04;4.43;;;1.90;;
18838;SDS011;9548;56.920;14.804;2022-11-22T05:59:31;5.30;;;2.60;;
18838;SDS011;9548;56.920;14.804;2022-11-22T06:01:59;3.03;;;1.97;;
18838;SDS011;9548;56.920;14.804;2022-11-22T06:04:26;5.90;;;2.03;;
18838;SDS011;9548;56.920;14.804;2022-11-22T06:06:53;8.87;;;3.17;;
18838;SDS011;9548;56.920;14.804;2022-11-22T06:09:20;5.57;;;3.17;;
18838;SDS011;9548;56.920;14.804;2022-11-22T06:11:48;9.07;;;3.53;;
18838;SDS011;9548;56.920;14.804;2022-11-22T06:14:14;4.13;;;2.77;;
18838;SDS011;9548;56.920;14.804;2022-11-22T06:16:42;2.70;;;1.63;;
18838;SDS011;9548;56.920;14.804;2022-11-22T06:19:10;3.80;;;2.40;;
18838;SDS011;9548;56.920;14.804;2022-11-22T06:21:37;4.17;;;2.30;;
18838;SDS011;9548;56.920;14.804;2022-11-22T06:24:05;4.33;;;2.50;;
18838;SDS011;9548;56.920;14.804;2022-11-22T06:26:32;4.40;;;2.80;;
18838;SDS011;9548;56.920;14.804;2022-11-22T06:28:59;2.63;;;1.90;;
18838;SDS011;9548;56.920;14.804;2022-11-22T06:31:26;6.87;;;3.33;;
18838;SDS011;9548;56.920;14.804;2022-11-22T06:33:55;4.47;;;2.50;;
18838;SDS011;9548;56.920;14.804;2022-11-22T06:36:26;4.20;;;2.40;;
18838;SDS011;9548;56.920;14.804;2022-11-22T06:38:53;3.67;;;2.42;;
18838;SDS011;9548;56.920;14.804;2022-11-22T06:41:21;4.03;;;2.53;;
18838;SDS011;9548;56.920;14.804;2022-11-22T06:43:49;4.80;;;2.77;;
18838;SDS011;9548;56.920;14.804;2022-11-22T06:46:18;4.13;;;2.67;;
18838;SDS011;9548;56.920;14.804;2022-11-22T06:48:46;4.23;;;2.40;;
18838;SDS011;9548;56.920;14.804;2022-11-22T06:51:14;4.00;;;2.43;;
18838;SDS011;9548;56.920;14.804;2022-11-22T06:53:44;4.97;;;3.10;;
18838;SDS011;9548;56.920;14.804;2022-11-22T06:56:12;4.95;;;3.03;;
18838;SDS011;9548;56.920;14.804;2022-11-22T06:58:41;7.88;;;3.55;;
18838;SDS011;9548;56.920;14.804;2022-11-22T07:01:09;6.43;;;3.30;;
18838;SDS011;9548;56.920;14.804;2022-11-22T07:03:37;7.03;;;3.70;;
18838;SDS011;9548;56.920;14.804;2022-11-22T07:06:06;8.63;;;3.67;;
18838;SDS011;9548;56.920;14.804;2022-11-22T07:08:33;6.83;;;3.57;;
18838;SDS011;9548;56.920;14.804;2022-11-22T07:11:02;8.00;;;3.83;;
18838;SDS011;9548;56.920;14.804;2022-11-22T07:13:30;9.10;;;3.93;;
18838;SDS011;9548;56.920;14.804;2022-11-22T07:15:58;5.97;;;3.20;;
18838;SDS011;9548;56.920;14.804;2022-11-22T07:18:26;5.73;;;3.30;;
18838;SDS011;9548;56.920;14.804;2022-11-22T07:20:58;7.17;;;3.77;;
18838;SDS011;9548;56.920;14.804;2022-11-22T07:23:26;7.73;;;3.90;;
18838;SDS011;9548;56.920;14.804;2022-11-22T07:25:53;7.60;;;3.70;;
18838;SDS011;9548;56.920;14.804;2022-11-22T07:28:24;8.47;;;4.37;;
18838;SDS011;9548;56.920;14.804;2022-11-22T07:30:51;8.73;;;4.40;;
18838;SDS011;9548;56.920;14.804;2022-11-22T07:33:18;8.03;;;4.53;;
18838;SDS011;9548;56.920;14.804;2022-11-22T07:35:45;10.70;;;4.93;;
18838;SDS011;9548;56.920;14.804;2022-11-22T07:38:12;7.57;;;4.37;;
18838;SDS011;9548;56.920;14.804;2022-11-22T07:40:39;7.67;;;4.70;;
18838;SDS011;9548;56.920;14.804;2022-11-22T07:43:06;7.33;;;4.23;;
18838;SDS011;9548;56.920;14.804;2022-11-22T07:45:34;6.70;;;4.00;;
18838;SDS011;9548;56.920;14.804;2022-11-22T07:48:01;8.98;;;5.00;;
18838;SDS011;9548;56.920;14.804;2022-11-22T07:50:28;7.10;;;4.22;;
18838;SDS011;9548;56.920;14.804;2022-11-22T07:52:55;8.57;;;4.47;;
18838;SDS011;9548;56.920;14.804;2022-11-22T07:55:23;7.15;;;4.47;;
18838;SDS011;9548;56.920;14.804;2022-11-22T07:57:51;7.67;;;4.37;;
18838;SDS011;9548;56.920;14.804;2022-11-22T08:00:18;7.87;;;4.30;;
18838;SDS011;9548;56.920;14.804;2022-11-22T08:02:47;10.13;;;4.53;;
18838;SDS011;9548;56.920;14.804;2022-11-22T08:05:14;11.10;;;4.80;;
18838;SDS011;9548;56.920;14.804;2022-11-22T08:07:44;8.07;;;4.83;;
18838;SDS011;9548;56.920;14.804;2022-11-22T08:10:12;8.13;;;4.90;;
18838;SDS011;9548;56.920;14.804;2022-11-22T08:12:39;8.50;;;4.82;;
18838;SDS011;9548;56.920;14.804;2022-11-22T08:15:06;7.63;;;4.53;;
18838;SDS011;9548;56.920;14.804;2022-11-22T08:17:35;10.87;;;4.60;;
18838;SDS011;9548;56.920;14.804;2022-11-22T08:20:04;8.43;;;4.45;;
18838;SDS011;9548;56.920;14.804;2022-11-22T08:22:33;8.57;;;4.63;;
18838;SDS011;9548;56.920;14.804;2022-11-22T08:25:00;9.13;;;4.43;;
18838;SDS011;9548;56.920;14.804;2022-11-22T08:27:27;8.40;;;4.67;;
18838;SDS011;9548;56.920;14.804;2022-11-22T08:29:54;8.70;;;4.47;;
18838;SDS011;9548;56.920;14.804;2022-11-22T08:32:21;7.33;;;4.27;;
18838;SDS011;9548;56.920;14.804;2022-11-22T08:34:47;7.07;;;4.00;;
18838;SDS011;9548;56.920;14.804;2022-11-22T08:37:16;7.40;;;4.63;;
18838;SDS011;9548;56.920;14.804;2022-11-22T08:39:43;7.93;;;4.67;;
18838;SDS011;9548;56.920;14.804;2022-11-22T08:42:10;6.93;;;4.17;;
18838;SDS011;9548;56.920;14.804;2022-11-22T08:44:36;7.28;;;4.40;;
18838;SDS011;9548;56.920;14.804;2022-11-22T08:47:03;8.90;;;4.80;;
18838;SDS011;9548;56.920;14.804;2022-11-22T08:49:30;8.75;;;4.60;;
18838;SDS011;9548;56.920;14.804;2022-11-22T08:51:57;8.00;;;4.70;;
18838;SDS011;9548;56.920;14.804;2022-11-22T08:54:25;6.60;;;3.70;;
18838;SDS011;9548;56.920;14.804;2022-11-22T08:56:52;6.40;;;3.90;;
18838;SDS011;9548;56.920;14.804;2022-11-22T08:59:19;9.97;;;4.93;;
18838;SDS011;9548;56.920;14.804;2022-11-22T09:01:46;7.53;;;4.20;;
18838;SDS011;9548;56.920;14.804;2022-11-22T09:04:13;9.23;;;4.40;;
18838;SDS011;9548;56.920;14.804;2022-11-22T09:06:40;7.22;;;4.07;;
18838;SDS011;9548;56.920;14.804;2022-11-22T09:09:07;6.00;;;3.53;;
18838;SDS011;9548;56.920;14.804;2022-11-22T09:11:35;5.75;;;3.53;;
18838;SDS011;9548;56.920;14.804;2022-11-22T09:14:02;7.95;;;3.90;;
18838;SDS011;9548;56.920;14.804;2022-11-22T09:16:29;6.07;;;3.43;;
18838;SDS011;9548;56.920;14.804;2022-11-22T09:18:56;8.57;;;3.43;;
18838;SDS011;9548;56.920;14.804;2022-11-22T09:21:23;7.18;;;3.90;;
18838;SDS011;9548;56.920;14.804;2022-11-22T09:23:50;16.88;;;6.55;;
18838;SDS011;9548;56.920;14.804;2022-11-22T09:26:19;7.30;;;3.80;;
18838;SDS011;9548;56.920;14.804;2022-11-22T09:28:49;7.13;;;3.65;;
18838;SDS011;9548;56.920;14.804;2022-11-22T09:31:18;7.97;;;3.20;;
18838;SDS011;9548;56.920;14.804;2022-11-22T09:33:46;8.65;;;3.35;;
18838;SDS011;9548;56.920;14.804;2022-11-22T09:36:14;6.25;;;3.20;;
18838;SDS011;9548;56.920;14.804;2022-11-22T09:38:42;4.90;;;2.75;;
18838;SDS011;9548;56.920;14.804;2022-11-22T09:41:14;5.82;;;3.05;;
18838;SDS011;9548;56.920;14.804;2022-11-22T09:44:03;4.70;;;2.70;;
18838;SDS011;9548;56.920;14.804;2022-11-22T09:46:39;4.80;;;2.45;;
18838;SDS011;9548;56.920;14.804;2022-11-22T09:49:19;3.83;;;2.63;;
18838;SDS011;9548;56.920;14.804;2022-11-22T09:51:53;3.72;;;2.40;;
18838;SDS011;9548;56.920;14.804;2022-11-22T09:54:27;4.30;;;2.63;;
18838;SDS011;9548;56.920;14.804;2022-11-22T09:57:00;3.95;;;2.42;;
18838;SDS011;9548;56.920;14.804;2022-11-22T09:59:31;4.47;;;2.58;;
18838;SDS011;9548;56.920;14.804;2022-11-22T10:02:03;3.75;;;2.60;;
18838;SDS011;9548;56.920;14.804;2022-11-22T10:04:33;3.90;;;3.05;;
18838;SDS011;9548;56.920;14.804;2022-11-22T10:07:04;5.43;;;3.03;;
18838;SDS011;9548;56.920;14.804;2022-11-22T10:09:38;4.65;;;3.10;;
18838;SDS011;9548;56.920;14.804;2022-11-22T10:12:14;4.38;;;3.20;;
18838;SDS011;9548;56.920;14.804;2022-11-22T10:14:47;4.35;;;3.00;;
18838;SDS011;9548;56.920;14.804;2022-11-22T10:17:29;4.95;;;2.95;;
18838;SDS011;9548;56.920;14.804;2022-11-22T10:20:06;5.90;;;3.55;;
18838;SDS011;9548;56.920;14.804;2022-11-22T10:22:40;4.57;;;2.83;;
18838;SDS011;9548;56.920;14.804;2022-11-22T10:25:13;5.10;;;3.35;;
18838;SDS011;9548;56.920;14.804;2022-11-22T10:27:42;3.33;;;2.58;;
18838;SDS011;9548;56.920;14.804;2022-11-22T10:30:16;6.05;;;2.65;;
18838;SDS011;9548;56.920;14.804;2022-11-22T10:32:49;4.40;;;2.50;;
18838;SDS011;9548;56.920;14.804;2022-11-22T10:35:31;3.85;;;2.55;;
18838;SDS011;9548;56.920;14.804;2022-11-22T10:41:18;2.88;;;2.20;;
18838;SDS011;9548;56.920;14.804;2022-11-22T10:43:58;4.00;;;2.28;;
18838;SDS011;9548;56.920;14.804;2022-11-22T10:46:39;4.60;;;2.50;;
18838;SDS011;9548;56.920;14.804;2022-11-22T10:49:15;4.07;;;2.60;;
18838;SDS011;9548;56.920;14.804;2022-11-22T10:51:49;4.30;;;2.85;;
18838;SDS011;9548;56.920;14.804;2022-11-22T10:54:23;5.03;;;2.70;;
18838;SDS011;9548;56.920;14.804;2022-11-22T10:56:57;4.13;;;2.78;;
18838;SDS011;9548;56.920;14.804;2022-11-22T10:59:32;6.03;;;2.63;;
18838;SDS011;9548;56.920;14.804;2022-11-22T11:02:14;5.28;;;3.40;;
18838;SDS011;9548;56.920;14.804;2022-11-22T11:04:57;5.95;;;3.15;;
18838;SDS011;9548;56.920;14.804;2022-11-22T11:07:25;3.88;;;2.72;;
18838;SDS011;9548;56.920;14.804;2022-11-22T11:09:54;5.93;;;3.10;;
18838;SDS011;9548;56.920;14.804;2022-11-22T11:12:27;5.70;;;3.15;;
18838;SDS011;9548;56.920;14.804;2022-11-22T11:15:03;6.60;;;3.80;;
18838;SDS011;9548;56.920;14.804;2022-11-22T11:17:39;5.88;;;3.63;;
18838;SDS011;9548;56.920;14.804;2022-11-22T11:20:15;6.85;;;3.75;;
18838;SDS011;9548;56.920;14.804;2022-11-22T11:22:48;5.82;;;3.50;;
18838;SDS011;9548;56.920;14.804;2022-11-22T11:25:30;7.18;;;3.63;;
18838;SDS011;9548;56.920;14.804;2022-11-22T11:28:00;6.50;;;3.70;;
18838;SDS011;9548;56.920;14.804;2022-11-22T11:30:37;7.63;;;3.60;;
18838;SDS011;9548;56.920;14.804;2022-11-22T11:33:13;6.63;;;3.55;;
18838;SDS011;9548;56.920;14.804;2022-11-22T11:35:46;6.95;;;3.55;;
18838;SDS011;9548;56.920;14.804;2022-11-22T11:38:26;5.90;;;3.30;;
18838;SDS011;9548;56.920;14.804;2022-11-22T11:40:55;8.50;;;3.85;;
18838;SDS011;9548;56.920;14.804;2022-11-22T11:43:22;6.85;;;3.65;;
18838;SDS011;9548;56.920;14.804;2022-11-22T11:45:50;5.88;;;3.60;;
18838;SDS011;9548;56.920;14.804;2022-11-22T11:48:26;6.53;;;3.70;;
18838;SDS011;9548;56.920;14.804;2022-11-22T11:51:07;5.50;;;3.45;;
18838;SDS011;9548;56.920;14.804;2022-11-22T11:53:42;6.47;;;3.60;;
18838;SDS011;9548;56.920;14.804;2022-11-22T11:56:18;7.35;;;4.05;;
18838;SDS011;9548;56.920;14.804;2022-11-22T11:58:49;8.48;;;4.30;;
18838;SDS011;9548;56.920;14.804;2022-11-22T12:01:17;7.43;;;4.05;;
18838;SDS011;9548;56.920;14.804;2022-11-22T12:03:56;7.95;;;4.13;;
18838;SDS011;9548;56.920;14.804;2022-11-22T12:06:27;7.28;;;4.07;;
18838;SDS011;9548;56.920;14.804;2022-11-22T12:08:55;9.35;;;4.07;;
18838;SDS011;9548;56.920;14.804;2022-11-22T12:11:24;8.95;;;4.00;;
18838;SDS011;9548;56.920;14.804;2022-11-22T12:13:58;8.55;;;3.92;;
18838;SDS011;9548;56.920;14.804;2022-11-22T12:16:29;8.07;;;4.70;;
18838;SDS011;9548;56.920;14.804;2022-11-22T12:19:02;7.22;;;3.78;;
18838;SDS011;9548;56.920;14.804;2022-11-22T12:21:38;9.55;;;4.30;;
18838;SDS011;9548;56.920;14.804;2022-11-22T12:24:16;7.45;;;3.83;;
18838;SDS011;9548;56.920;14.804;2022-11-22T12:26:48;7.15;;;3.78;;
18838;SDS011;9548;56.920;14.804;2022-11-22T12:29:15;9.65;;;4.53;;
18838;SDS011;9548;56.920;14.804;2022-11-22T12:31:43;10.88;;;4.97;;
18838;SDS011;9548;56.920;14.804;2022-11-22T12:34:19;14.57;;;6.97;;
18838;SDS011;9548;56.920;14.804;2022-11-22T12:36:51;16.02;;;7.70;;
18838;SDS011;9548;56.920;14.804;2022-11-22T12:39:25;11.95;;;6.20;;
18838;SDS011;9548;56.920;14.804;2022-11-22T12:41:54;12.73;;;5.35;;
18838;SDS011;9548;56.920;14.804;2022-11-22T12:44:26;13.32;;;6.78;;
18838;SDS011;9548;56.920;14.804;2022-11-22T12:46:58;9.73;;;5.13;;
18838;SDS011;9548;56.920;14.804;2022-11-22T12:49:31;11.07;;;4.72;;
18838;SDS011;9548;56.920;14.804;2022-11-22T12:52:05;10.90;;;5.22;;
18838;SDS011;9548;56.920;14.804;2022-11-22T12:54:38;12.45;;;5.50;;
18838;SDS011;9548;56.920;14.804;2022-11-22T12:57:12;9.57;;;4.60;;
18838;SDS011;9548;56.920;14.804;2022-11-22T12:59:44;9.70;;;5.25;;
18838;SDS011;9548;56.920;14.804;2022-11-22T13:02:21;10.27;;;4.90;;
18838;SDS011;9548;56.920;14.804;2022-11-22T13:04:57;10.40;;;4.82;;
18838;SDS011;9548;56.920;14.804;2022-11-22T13:07:32;10.52;;;5.45;;
18838;SDS011;9548;56.920;14.804;2022-11-22T13:10:13;12.13;;;5.55;;
18838;SDS011;9548;56.920;14.804;2022-11-22T13:12:45;9.85;;;4.90;;
18838;SDS011;9548;56.920;14.804;2022-11-22T13:15:15;9.68;;;4.53;;
18838;SDS011;9548;56.920;14.804;2022-11-22T13:17:51;9.07;;;5.03;;
18838;SDS011;9548;56.920;14.804;2022-11-22T13:20:20;11.80;;;5.25;;
18838;SDS011;9548;56.920;14.804;2022-11-22T13:22:51;8.63;;;4.85;;
18838;SDS011;9548;56.920;14.804;2022-11-22T13:25:40;9.57;;;4.65;;
18838;SDS011;9548;56.920;14.804;2022-11-22T13:28:13;10.73;;;5.25;;
18838;SDS011;9548;56.920;14.804;2022-11-22T13:33:31;12.50;;;6.03;;
18838;SDS011;9548;56.920;14.804;2022-11-22T13:39:14;11.50;;;6.10;;
18838;SDS011;9548;56.920;14.804;2022-11-22T13:47:35;12.85;;;5.68;;
18838;SDS011;9548;56.920;14.804;2022-11-22T13:53:26;11.48;;;5.05;;
18838;SDS011;9548;56.920;14.804;2022-11-22T13:55:56;10.87;;;5.57;;
18838;SDS011;9548;56.920;14.804;2022-11-22T13:58:43;13.23;;;5.93;;
18838;SDS011;9548;56.920;14.804;2022-11-22T14:01:29;12.25;;;6.25;;
18838;SDS011;9548;56.920;14.804;2022-11-22T14:04:19;11.17;;;5.77;;
18838;SDS011;9548;56.920;14.804;2022-11-22T14:06:54;11.77;;;5.75;;
18838;SDS011;9548;56.920;14.804;2022-11-22T14:09:31;12.30;;;5.90;;
18838;SDS011;9548;56.920;14.804;2022-11-22T14:12:11;10.38;;;5.43;;
18838;SDS011;9548;56.920;14.804;2022-11-22T14:15:16;13.00;;;5.97;;
18838;SDS011;9548;56.920;14.804;2022-11-22T14:17:51;11.63;;;5.70;;
18838;SDS011;9548;56.920;14.804;2022-11-22T14:20:38;12.60;;;6.15;;
18838;SDS011;9548;56.920;14.804;2022-11-22T14:23:14;11.32;;;5.88;;
18838;SDS011;9548;56.920;14.804;2022-11-22T14:29:01;14.32;;;6.22;;
18838;SDS011;9548;56.920;14.804;2022-11-22T14:31:42;12.47;;;5.53;;
18838;SDS011;9548;56.920;14.804;2022-11-22T14:34:20;13.65;;;6.35;;
18838;SDS011;9548;56.920;14.804;2022-11-22T14:39:59;12.65;;;6.15;;
18838;SDS011;9548;56.920;14.804;2022-11-22T14:42:54;12.30;;;6.47;;
18838;SDS011;9548;56.920;14.804;2022-11-22T14:45:26;13.00;;;6.72;;
18838;SDS011;9548;56.920;14.804;2022-11-22T14:48:04;14.20;;;6.63;;
18838;SDS011;9548;56.920;14.804;2022-11-22T14:50:42;12.05;;;6.35;;
18838;SDS011;9548;56.920;14.804;2022-11-22T14:53:20;16.05;;;7.07;;
18838;SDS011;9548;56.920;14.804;2022-11-22T14:55:54;13.30;;;5.90;;
18838;SDS011;9548;56.920;14.804;2022-11-22T14:58:24;14.82;;;6.97;;
18838;SDS011;9548;56.920;14.804;2022-11-22T15:01:01;17.13;;;7.30;;
18838;SDS011;9548;56.920;14.804;2022-11-22T15:03:51;17.73;;;7.25;;
18838;SDS011;9548;56.920;14.804;2022-11-22T15:06:34;16.77;;;7.77;;
18838;SDS011;9548;56.920;14.804;2022-11-22T15:09:17;18.00;;;8.63;;
18838;SDS011;9548;56.920;14.804;2022-11-22T15:12:03;19.42;;;7.75;;
18838;SDS011;9548;56.920;14.804;2022-11-22T15:17:45;18.07;;;8.20;;
18838;SDS011;9548;56.920;14.804;2022-11-22T15:20:34;17.70;;;8.17;;
18838;SDS011;9548;56.920;14.804;2022-11-22T15:23:05;19.00;;;7.80;;
18838;SDS011;9548;56.920;14.804;2022-11-22T15:25:40;21.40;;;8.75;;
18838;SDS011;9548;56.920;14.804;2022-11-22T15:28:10;24.90;;;8.90;;
18838;SDS011;9548;56.920;14.804;2022-11-22T15:30:39;21.77;;;9.03;;
18838;SDS011;9548;56.920;14.804;2022-11-22T15:33:20;18.47;;;8.83;;